Time;durP1;ratioP1;P1;durP2;ratioP2;P2;SDS_P1;SDS_P2;PMS_P1;PMS_P2;Temp;Humidity;BMP_temperature;BMP_pressure;BME280_temperature;BME280_humidity;BME280_pressure;Samples;Min_cycle;Max_cycle;Signal;HPM_P1;HPM_P2
2023/08/18 00:00:33;;;;;;;21.58;19.05;;;;;;;28.04;56.55;101124.19;6075563;23;20367;-81
2023/08/18 00:02:59;;;;;;;21.20;18.88;;;;;;;28.24;57.04;101151.06;6142253;23;20098;-82
2023/08/18 00:05:26;;;;;;;23.90;19.77;;;;;;;28.20;56.69;101152.63;6154451;23;20237;-82
2023/08/18 00:07:57;;;;;;;28.40;20.50;;;;;;;28.15;56.77;101149.78;6104922;23;20373;-82
2023/08/18 00:10:25;;;;;;;23.63;21.13;;;;;;;28.13;57.00;101157.38;6147748;23;20105;-80
2023/08/18 00:12:52;;;;;;;28.77;20.42;;;;;;;27.73;56.97;101109.00;6133847;23;20467;-82
2023/08/18 00:15:20;;;;;;;29.20;19.90;;;;;;;28.07;57.15;101167.34;6127369;23;20021;-82
2023/08/18 00:17:46;;;;;;;23.63;19.70;;;;;;;27.99;57.16;101156.81;6144944;23;20028;-82
2023/08/18 00:20:13;;;;;;;23.70;21.05;;;;;;;27.06;56.96;101012.03;6154414;23;20023;-81
2023/08/18 00:22:40;;;;;;;28.25;19.65;;;;;;;27.86;57.02;101140.69;6152768;23;20024;-80
2023/08/18 00:25:12;;;;;;;24.92;20.58;;;;;;;27.85;57.02;101134.41;6080274;23;20017;-81
2023/08/18 00:27:54;;;;;;;25.60;20.05;;;;;;;28.04;56.73;101159.66;6087561;23;20174;-82
2023/08/18 00:30:29;;;;;;;22.52;20.13;;;;;;;28.01;56.77;101159.28;6115588;23;20017;-82
2023/08/18 00:32:56;;;;;;;31.40;21.25;;;;;;;27.69;56.58;101107.81;6110208;23;20017;-80
2023/08/18 00:35:23;;;;;;;23.30;19.83;;;;;;;28.00;56.91;101154.91;6136984;23;20021;-83
2023/08/18 00:37:49;;;;;;;26.08;22.00;;;;;;;27.95;56.78;101143.88;6131260;23;20095;-82
2023/08/18 00:40:23;;;;;;;22.95;20.45;;;;;;;27.98;56.85;101154.31;6108648;23;20669;-81
2023/08/18 00:42:51;;;;;;;23.17;20.45;;;;;;;26.56;56.78;100930.72;6138136;23;20023;-81
2023/08/18 00:45:23;;;;;;;26.63;19.15;;;;;;;27.83;56.97;101143.91;6110700;23;20096;-80
2023/08/18 00:47:50;;;;;;;27.13;21.45;;;;;;;27.22;56.56;101047.84;6145460;23;20096;-81
2023/08/18 00:50:18;;;;;;;24.70;20.38;;;;;;;27.90;56.83;101159.06;6124519;23;20347;-81
2023/08/18 00:52:56;;;;;;;25.08;20.45;;;;;;;27.87;56.43;101145.91;6142233;23;20100;-80
2023/08/18 00:55:27;;;;;;;26.23;20.33;;;;;;;27.99;56.24;101155.97;6137307;23;20303;-81
2023/08/18 00:58:00;;;;;;;25.95;20.70;;;;;;;27.85;56.74;101145.31;6124504;23;20493;-80
2023/08/18 01:00:27;;;;;;;25.83;20.50;;;;;;;27.53;56.77;101109.38;6139056;23;20017;-81
2023/08/18 01:02:54;;;;;;;23.08;20.13;;;;;;;27.68;56.92;101130.72;6108048;23;20381;-80
2023/08/18 01:05:21;;;;;;;23.60;20.13;;;;;;;27.71;56.79;101138.41;6110041;23;20072;-80
2023/08/18 01:07:48;;;;;;;29.05;20.33;;;;;;;27.51;57.07;101105.22;6134202;23;20049;-79
2023/08/18 01:10:20;;;;;;;29.90;20.42;;;;;;;27.70;56.42;101125.84;6124617;23;20040;-79
2023/08/18 01:13:07;;;;;;;30.38;20.05;;;;;;;27.81;56.65;101138.63;6142945;23;20021;-81
2023/08/18 01:15:42;;;;;;;26.17;19.02;;;;;;;27.67;56.47;101115.38;6101921;23;20017;-81
2023/08/18 01:18:10;;;;;;;23.60;20.15;;;;;;;27.57;56.61;101098.81;6109036;23;20026;-81
2023/08/18 01:20:38;;;;;;;31.33;21.15;;;;;;;27.08;56.57;101030.84;6096863;23;20465;-80
2023/08/18 01:23:08;;;;;;;25.00;19.58;;;;;;;27.75;56.64;101133.31;6128545;23;20088;-81
2023/08/18 01:25:35;;;;;;;25.45;19.77;;;;;;;27.76;56.41;101130.34;6104373;23;20021;-81
2023/08/18 01:28:02;;;;;;;29.80;19.08;;;;;;;27.70;56.30;101125.84;6119579;23;20612;-83
2023/08/18 01:30:51;;;;;;;22.73;19.45;;;;;;;27.75;56.11;101134.16;6127335;23;20026;-81
2023/08/18 01:33:28;;;;;;;24.48;19.27;;;;;;;27.75;56.06;101122.41;6115044;23;20817;-80
2023/08/18 01:36:04;;;;;;;28.90;20.83;;;;;;;27.61;56.09;101116.34;6102059;23;20032;-80
2023/08/18 01:38:37;;;;;;;26.52;19.50;;;;;;;27.53;56.32;101100.38;6101372;23;20329;-82
2023/08/18 01:41:09;;;;;;;22.95;19.25;;;;;;;27.55;56.47;101109.09;6114108;23;20100;-80
2023/08/18 01:43:37;;;;;;;22.20;18.38;;;;;;;27.54;56.65;101118.38;6120524;23;20037;-81
2023/08/18 01:46:04;;;;;;;22.60;18.95;;;;;;;27.09;56.76;101054.31;6129288;23;20101;-80
2023/08/18 01:48:30;;;;;;;28.17;20.15;;;;;;;26.85;57.09;101015.31;6138455;23;20025;-82
2023/08/18 01:50:57;;;;;;;25.52;21.90;;;;;;;27.45;57.52;101134.25;6107506;23;20080;-80
2023/08/18 01:53:24;;;;;;;25.00;21.27;;;;;;;27.10;57.69;101082.38;6105372;23;20357;-81
2023/08/18 01:55:51;;;;;;;27.10;20.27;;;;;;;27.23;58.08;101110.28;6118432;23;20025;-80
2023/08/18 01:58:17;;;;;;;26.52;20.95;;;;;;;26.52;58.08;100999.44;6109938;23;20057;-82
2023/08/18 02:00:44;;;;;;;24.25;20.65;;;;;;;26.79;58.02;101038.03;6134128;23;20719;-81
2023/08/18 02:03:11;;;;;;;28.67;21.23;;;;;;;27.19;58.35;101113.72;6151216;23;20022;-81
2023/08/18 02:05:41;;;;;;;29.27;21.70;;;;;;;27.22;58.47;101122.25;6142137;23;20029;-80
2023/08/18 02:08:07;;;;;;;29.85;21.67;;;;;;;27.17;58.65;101132.16;6128915;23;20029;-80
2023/08/18 02:10:34;;;;;;;25.15;20.55;;;;;;;26.66;58.75;101035.53;6131208;23;20021;-80
2023/08/18 02:13:01;;;;;;;31.98;22.35;;;;;;;27.21;58.59;101126.06;6105858;23;20021;-81
2023/08/18 02:15:28;;;;;;;24.98;20.08;;;;;;;26.99;58.36;101076.69;6093802;23;20025;-81
2023/08/18 02:17:58;;;;;;;27.25;21.00;;;;;;;27.28;58.44;101113.16;6103982;23;20072;-83
2023/08/18 02:20:28;;;;;;;26.50;19.97;;;;;;;27.31;58.25;101106.41;6102584;23;20017;-81
2023/08/18 02:22:57;;;;;;;28.70;21.63;;;;;;;27.22;58.97;101113.25;6090698;23;20269;-82
2023/08/18 02:25:29;;;;;;;31.55;19.98;;;;;;;27.18;58.70;101115.56;6120481;23;20475;-81
2023/08/18 02:27:58;;;;;;;23.60;20.02;;;;;;;27.02;58.43;101081.66;6131146;23;20184;-81
2023/08/18 02:30:26;;;;;;;24.00;19.25;;;;;;;27.19;58.01;101105.53;6111399;23;20044;-81
2023/08/18 02:32:59;;;;;;;24.25;19.98;;;;;;;26.76;58.17;101033.06;6097822;23;20021;-81
2023/08/18 02:35:26;;;;;;;24.58;20.15;;;;;;;26.98;58.13;101079.63;6122697;23;20017;-80
2023/08/18 02:37:52;;;;;;;24.55;19.33;;;;;;;26.78;58.16;101050.81;6134098;23;20468;-79
2023/08/18 02:40:19;;;;;;;26.15;19.38;;;;;;;27.12;57.85;101097.44;6134885;23;20096;-81
2023/08/18 02:42:48;;;;;;;21.25;19.02;;;;;;;26.53;57.65;101006.53;6114789;23;20034;-81
2023/08/18 02:45:15;;;;;;;26.67;19.58;;;;;;;26.89;57.82;101064.69;6131522;23;20454;-80
2023/08/18 02:47:41;;;;;;;21.80;19.25;;;;;;;26.63;57.69;101026.75;6080187;23;20468;-81
2023/08/18 02:50:08;;;;;;;21.33;18.63;;;;;;;27.02;57.44;101086.28;6138093;23;20022;-80
2023/08/18 02:52:36;;;;;;;22.83;18.00;;;;;;;26.76;57.76;101063.00;6086965;23;20025;-78
2023/08/18 02:55:03;;;;;;;24.30;20.08;;;;;;;27.04;57.76;101112.25;6106131;23;20058;-79
2023/08/18 02:57:37;;;;;;;29.50;23.13;;;;;;;27.16;58.55;101114.13;6063680;23;20694;-80
2023/08/18 03:00:18;;;;;;;28.95;21.45;;;;;;;27.14;58.71;101105.38;6050672;23;20132;-81
2023/08/18 03:02:58;;;;;;;31.57;23.43;;;;;;;27.02;59.17;101108.09;6081096;23;20379;-80
2023/08/18 03:05:52;;;;;;;26.52;21.75;;;;;;;26.89;59.57;101111.81;6056830;23;20044;-80
2023/08/18 03:08:36;;;;;;;26.52;23.00;;;;;;;26.99;59.61;101114.84;6076374;23;20275;-81
2023/08/18 03:11:19;;;;;;;30.75;22.80;;;;;;;26.86;60.12;101115.03;6104059;23;20773;-80
2023/08/18 03:14:00;;;;;;;28.73;23.70;;;;;;;26.76;60.66;101115.56;6091857;23;20021;-80
2023/08/18 03:16:37;;;;;;;27.83;21.95;;;;;;;26.65;60.67;101097.28;6081952;23;20170;-80
2023/08/18 03:19:09;;;;;;;31.45;23.77;;;;;;;26.62;60.95;101101.31;6131534;23;20512;-80
2023/08/18 03:21:38;;;;;;;31.05;22.98;;;;;;;26.69;61.08;101108.56;6093432;23;20052;-81
2023/08/18 03:24:10;;;;;;;32.55;22.70;;;;;;;26.39;61.65;101082.97;6103761;23;20391;-79
2023/08/18 03:26:51;;;;;;;46.80;27.13;;;;;;;26.48;61.76;101102.53;6074951;23;20349;-83
2023/08/18 03:29:30;;;;;;;32.15;24.38;;;;;;;26.58;61.49;101108.31;6072517;23;20230;-81
2023/08/18 03:32:10;;;;;;;33.67;25.08;;;;;;;26.47;61.68;101098.16;6061486;23;20111;-82
2023/08/18 03:34:51;;;;;;;31.42;24.65;;;;;;;26.31;62.17;101074.28;6083258;23;20017;-82
2023/08/18 03:37:23;;;;;;;32.75;23.17;;;;;;;26.25;61.96;101064.31;6084793;23;20241;-82
2023/08/18 03:39:54;;;;;;;28.77;22.48;;;;;;;26.07;61.61;101046.13;6075920;23;20387;-82
2023/08/18 03:42:22;;;;;;;31.45;22.55;;;;;;;26.35;61.43;101099.97;6156782;23;20059;-81
2023/08/18 03:44:48;;;;;;;27.42;21.13;;;;;;;26.36;61.75;101107.94;6124180;23;20025;-81
2023/08/18 03:47:18;;;;;;;28.92;21.75;;;;;;;26.40;61.74;101113.72;6149732;23;20023;-82
2023/08/18 03:49:45;;;;;;;27.57;21.93;;;;;;;26.35;61.81;101113.59;6140918;23;20072;-82
2023/08/18 03:52:16;;;;;;;28.10;23.95;;;;;;;26.34;61.87;101114.66;6136207;23;20105;-82
2023/08/18 03:54:52;;;;;;;25.60;22.77;;;;;;;26.27;61.84;101113.91;6108584;23;20603;-82
2023/08/18 03:57:22;;;;;;;33.15;23.10;;;;;;;26.26;61.79;101117.69;6138776;23;20023;-81
2023/08/18 03:59:49;;;;;;;33.30;23.33;;;;;;;25.93;62.14;101076.22;6136670;23;20524;-81
2023/08/18 04:02:18;;;;;;;31.13;23.73;;;;;;;26.00;62.07;101100.63;6072541;23;20080;-82
2023/08/18 04:04:44;;;;;;;30.23;23.80;;;;;;;25.97;62.13;101095.63;6132823;23;20108;-83
2023/08/18 04:07:12;;;;;;;29.35;22.35;;;;;;;26.00;62.25;101106.06;6095190;23;20021;-81
2023/08/18 04:09:45;;;;;;;27.75;21.95;;;;;;;26.07;62.45;101112.25;6090836;23;20206;-81
2023/08/18 04:12:22;;;;;;;34.33;23.50;;;;;;;26.09;62.78;101122.91;6054225;23;20471;-81
2023/08/18 04:14:59;;;;;;;30.13;22.92;;;;;;;26.00;62.22;101093.28;6052213;23;20080;-82
2023/08/18 04:17:38;;;;;;;33.17;23.42;;;;;;;25.73;62.30;101060.09;6073195;23;20048;-81
2023/08/18 04:20:13;;;;;;;28.00;22.17;;;;;;;26.01;62.03;101083.22;6082552;23;20534;-82
2023/08/18 04:22:40;;;;;;;29.73;22.90;;;;;;;26.29;61.47;101125.38;6110989;23;20195;-82
2023/08/18 04:25:09;;;;;;;25.58;19.55;;;;;;;26.30;60.91;101113.44;6107949;23;20027;-80
2023/08/18 04:27:37;;;;;;;34.28;22.92;;;;;;;26.29;61.56;101117.22;6146446;23;20057;-83
2023/08/18 04:30:07;;;;;;;29.17;21.23;;;;;;;26.32;61.32;101138.56;6111070;23;20021;-81
2023/08/18 04:32:37;;;;;;;25.77;21.00;;;;;;;25.75;60.74;101071.56;6115292;23;20021;-81
2023/08/18 04:35:08;;;;;;;23.88;19.60;;;;;;;26.17;60.38;101128.06;6082822;23;20241;-82
2023/08/18 04:37:39;;;;;;;28.90;23.65;;;;;;;26.17;60.37;101134.31;6133582;23;20049;-80
2023/08/18 04:40:11;;;;;;;26.08;21.90;;;;;;;26.10;60.38;101139.00;6137140;23;20382;-81
2023/08/18 04:42:46;;;;;;;24.90;20.88;;;;;;;26.07;61.16;101155.78;6082805;23;20315;-79
2023/08/18 04:45:18;;;;;;;27.85;22.80;;;;;;;25.99;61.00;101156.06;6153344;23;20027;-80
2023/08/18 04:47:47;;;;;;;31.05;21.70;;;;;;;25.88;60.98;101157.66;6133793;23;20017;-81
2023/08/18 04:50:14;;;;;;;27.25;21.20;;;;;;;25.66;61.25;101127.28;6111629;23;20017;-80
2023/08/18 04:52:43;;;;;;;27.73;21.27;;;;;;;25.83;61.38;101162.06;6127074;23;20512;-80
2023/08/18 04:55:10;;;;;;;30.45;22.80;;;;;;;25.86;61.35;101169.81;6139613;23;20476;-80
2023/08/18 04:57:42;;;;;;;34.58;22.77;;;;;;;25.75;61.47;101147.72;6072436;23;20017;-80
2023/08/18 05:00:16;;;;;;;26.88;22.40;;;;;;;25.85;61.58;101168.09;6063415;23;20025;-82
2023/08/18 05:02:52;;;;;;;34.60;23.13;;;;;;;25.63;61.44;101145.94;6088030;23;20108;-81
2023/08/18 05:05:28;;;;;;;33.40;22.52;;;;;;;25.43;61.94;101110.78;6115366;23;20028;-81
2023/08/18 05:08:01;;;;;;;34.13;23.13;;;;;;;25.52;61.92;101125.75;6087444;23;20025;-81
2023/08/18 05:10:31;;;;;;;31.70;22.80;;;;;;;25.87;61.51;101166.84;6141156;23;20024;-81
2023/08/18 05:13:00;;;;;;;27.58;22.15;;;;;;;25.03;61.27;101014.13;6133071;23;20538;-79
2023/08/18 05:15:29;;;;;;;28.30;22.45;;;;;;;26.08;60.91;101176.47;6152961;23;20032;-79
2023/08/18 05:17:55;;;;;;;33.78;23.10;;;;;;;25.99;61.34;101175.09;6119102;23;20580;-80
2023/08/18 05:20:22;;;;;;;35.65;23.25;;;;;;;25.73;61.93;101135.38;6125569;23;20017;-80
2023/08/18 05:22:49;;;;;;;29.45;22.35;;;;;;;25.94;62.23;101183.13;6142786;23;20318;-81
2023/08/18 05:25:16;;;;;;;35.88;21.38;;;;;;;25.22;62.11;101061.22;6146196;23;20021;-80
2023/08/18 05:27:43;;;;;;;34.30;24.55;;;;;;;25.89;61.99;101163.91;6138113;23;20472;-80
2023/08/18 05:30:10;;;;;;;29.98;23.52;;;;;;;25.79;61.66;101143.47;6126276;23;20475;-79
2023/08/18 05:32:36;;;;;;;36.97;22.38;;;;;;;25.76;61.60;101146.66;6101781;23;20484;-80
2023/08/18 05:35:04;;;;;;;26.33;21.55;;;;;;;25.47;61.95;101096.53;6124461;23;20381;-80
2023/08/18 05:37:31;;;;;;;28.35;22.15;;;;;;;25.95;61.84;101163.03;6123398;23;20344;-79
2023/08/18 05:39:58;;;;;;;36.97;22.50;;;;;;;25.98;62.00;101174.28;6134784;23;20675;-80
2023/08/18 05:42:28;;;;;;;32.70;23.52;;;;;;;25.89;61.13;101150.31;6145021;23;20100;-81
2023/08/18 05:44:57;;;;;;;32.28;23.02;;;;;;;25.90;60.90;101141.94;6134085;23;20382;-80
2023/08/18 05:47:24;;;;;;;32.28;22.65;;;;;;;26.18;60.64;101179.50;6141463;23;20188;-81
2023/08/18 05:49:51;;;;;;;33.95;22.48;;;;;;;25.98;60.35;101140.81;6112131;23;20044;-80
2023/08/18 05:52:18;;;;;;;34.30;21.88;;;;;;;26.36;60.39;101191.44;6138765;23;20504;-80
2023/08/18 05:54:49;;;;;;;37.53;22.13;;;;;;;26.29;60.62;101163.47;6133606;23;20023;-81
2023/08/18 05:57:15;;;;;;;33.55;23.85;;;;;;;26.44;60.81;101191.16;6153230;23;20291;-80
2023/08/18 05:59:45;;;;;;;34.72;22.67;;;;;;;26.28;60.37;101167.28;6116321;23;20051;-80
2023/08/18 06:02:11;;;;;;;34.67;23.70;;;;;;;26.23;60.95;101154.34;6162540;23;20017;-79
2023/08/18 06:04:38;;;;;;;29.52;22.27;;;;;;;26.31;60.35;101156.78;6142724;23;20092;-78
2023/08/18 06:07:05;;;;;;;26.63;22.30;;;;;;;26.08;60.24;101105.75;6154698;23;20096;-80
2023/08/18 06:09:31;;;;;;;27.83;22.40;;;;;;;26.70;60.45;101198.22;6141207;23;20025;-80
2023/08/18 06:11:58;;;;;;;32.65;22.15;;;;;;;26.65;60.12;101176.25;6134298;23;20284;-80
2023/08/18 06:14:25;;;;;;;31.20;22.45;;;;;;;26.78;59.88;101195.16;6114418;23;20029;-80
2023/08/18 06:16:55;;;;;;;29.17;21.23;;;;;;;26.00;58.80;101051.66;6153394;23;20431;-80
2023/08/18 06:19:22;;;;;;;31.45;22.33;;;;;;;26.92;58.82;101201.28;6162381;23;20028;-80
2023/08/18 06:21:48;;;;;;;26.58;19.67;;;;;;;26.93;58.27;101200.19;6134334;23;20418;-81
2023/08/18 06:24:16;;;;;;;25.88;20.23;;;;;;;26.79;57.91;101171.47;6148225;23;20017;-80
2023/08/18 06:26:42;;;;;;;29.30;20.80;;;;;;;26.77;57.87;101159.97;6150447;23;20029;-79
2023/08/18 06:29:09;;;;;;;30.13;19.60;;;;;;;26.28;57.18;101077.47;6126580;23;20025;-81
2023/08/18 06:31:37;;;;;;;33.00;19.55;;;;;;;26.96;57.82;101197.00;6139930;23;20021;-80
2023/08/18 06:34:10;;;;;;;26.23;20.25;;;;;;;26.79;57.47;101141.53;6112337;23;20357;-80
2023/08/18 06:36:39;;;;;;;20.70;17.80;;;;;;;26.99;57.35;101169.31;6133675;23;20017;-82
2023/08/18 06:39:06;;;;;;;23.58;18.38;;;;;;;27.14;56.08;101193.41;6125250;23;20077;-81
2023/08/18 06:41:33;;;;;;;18.88;16.67;;;;;;;27.12;55.76;101181.09;6156422;23;20021;-83
2023/08/18 06:44:00;;;;;;;23.25;19.80;;;;;;;27.32;55.85;101208.91;6141233;23;20020;-82
2023/08/18 06:46:27;;;;;;;22.15;15.85;;;;;;;27.35;54.64;101200.25;6154141;23;20215;-80
2023/08/18 06:48:53;;;;;;;29.58;17.23;;;;;;;27.28;54.56;101183.16;6145030;23;20021;-82
2023/08/18 06:51:21;;;;;;;24.30;16.65;;;;;;;27.00;53.95;101132.00;6113638;23;20377;-80
2023/08/18 06:53:48;;;;;;;20.80;16.73;;;;;;;27.57;54.12;101218.78;6136209;23;20024;-82
2023/08/18 06:56:15;;;;;;;19.17;15.38;;;;;;;27.65;53.03;101199.38;6154456;23;20033;-81
2023/08/18 06:58:41;;;;;;;19.55;15.15;;;;;;;27.75;52.37;101210.53;6144784;23;20017;-82
2023/08/18 07:01:13;;;;;;;28.25;16.48;;;;;;;27.81;52.45;101219.66;6117181;23;20024;-83
2023/08/18 07:03:47;;;;;;;25.55;16.23;;;;;;;27.93;51.75;101212.31;6114596;23;20499;-81
2023/08/18 07:06:17;;;;;;;35.35;16.05;;;;;;;27.41;52.16;101139.34;6112559;23;20410;-81
2023/08/18 07:08:44;;;;;;;32.30;16.58;;;;;;;27.31;52.58;101141.81;6087664;23;20036;-82
2023/08/18 07:11:14;;;;;;;28.52;17.15;;;;;;;27.29;52.71;101152.13;6162764;23;20445;-81
2023/08/18 07:13:43;;;;;;;30.38;16.38;;;;;;;27.67;52.22;101206.25;6117962;23;20319;-83
2023/08/18 07:16:10;;;;;;;24.95;15.63;;;;;;;27.78;52.64;101210.03;6131401;23;20480;-82
2023/08/18 07:18:37;;;;;;;19.33;15.27;;;;;;;27.63;52.41;101188.69;6148928;23;20536;-78
2023/08/18 07:21:07;;;;;;;22.83;16.00;;;;;;;27.83;52.39;101207.47;6157024;23;20044;-80
2023/08/18 07:23:34;;;;;;;24.60;15.93;;;;;;;27.90;52.34;101213.63;6142983;23;20017;-79
2023/08/18 07:26:02;;;;;;;28.55;16.85;;;;;;;27.02;52.08;101059.03;6124529;23;20584;-78
2023/08/18 07:28:31;;;;;;;30.27;16.80;;;;;;;28.13;52.29;101217.41;6155439;23;20051;-79
2023/08/18 07:31:07;;;;;;;22.35;16.42;;;;;;;27.70;51.35;101150.41;6152692;23;20392;-79
2023/08/18 07:33:40;;;;;;;18.65;15.07;;;;;;;28.00;51.95;101201.31;6124512;23;20223;-82
2023/08/18 07:36:07;;;;;;;29.38;16.70;;;;;;;27.86;51.51;101179.69;6140608;23;20079;-81
2023/08/18 07:38:34;;;;;;;25.23;16.38;;;;;;;28.12;51.14;101218.50;6141925;23;20072;-82
2023/08/18 07:41:02;;;;;;;23.73;16.60;;;;;;;28.29;51.04;101219.44;6147166;23;20409;-82
2023/08/18 07:43:29;;;;;;;21.77;15.43;;;;;;;28.37;50.99;101222.84;6123114;23;20052;-82
2023/08/18 07:45:57;;;;;;;23.25;16.05;;;;;;;28.30;51.44;101229.28;6133941;23;20028;-81
2023/08/18 07:48:26;;;;;;;20.48;15.25;;;;;;;28.33;50.95;101223.34;6114928;23;20021;-82
2023/08/18 07:50:53;;;;;;;20.33;15.00;;;;;;;28.33;50.73;101217.88;6139860;23;20017;-81
2023/08/18 07:53:20;;;;;;;22.40;16.02;;;;;;;28.50;50.38;101219.91;6130908;23;20203;-80
2023/08/18 07:55:51;;;;;;;22.20;15.73;;;;;;;28.28;50.18;101193.22;6107852;23;20021;-80
2023/08/18 07:58:18;;;;;;;22.77;15.68;;;;;;;28.48;50.55;101224.78;6151396;23;20040;-81
2023/08/18 08:00:47;;;;;;;22.48;16.20;;;;;;;28.52;50.75;101217.75;6130721;23;20095;-81
2023/08/18 08:03:18;;;;;;;23.33;15.50;;;;;;;28.45;50.71;101208.81;6144050;23;20532;-79
2023/08/18 08:05:45;;;;;;;23.38;15.57;;;;;;;28.54;50.52;101218.34;6127347;23;20017;-80
2023/08/18 08:08:12;;;;;;;23.92;15.88;;;;;;;28.46;50.32;101200.44;6136715;23;20020;-80
2023/08/18 08:10:43;;;;;;;23.13;16.48;;;;;;;28.74;50.14;101217.94;6132188;23;20425;-81
2023/08/18 08:13:21;;;;;;;18.70;15.07;;;;;;;28.70;49.97;101212.13;6097079;23;20028;-81
2023/08/18 08:15:49;;;;;;;30.92;16.45;;;;;;;28.72;50.53;101215.44;6114926;23;20373;-80
2023/08/18 08:18:19;;;;;;;25.33;16.67;;;;;;;28.53;50.23;101164.81;6137227;23;20355;-81
2023/08/18 08:20:50;;;;;;;22.95;15.98;;;;;;;28.78;50.09;101208.19;6086388;23;20031;-81
2023/08/18 08:23:29;;;;;;;24.15;15.32;;;;;;;28.88;50.12;101226.69;6094900;23;20029;-80
2023/08/18 08:26:01;;;;;;;22.88;15.95;;;;;;;28.80;49.65;101194.28;6117164;23;20053;-79
2023/08/18 08:28:28;;;;;;;23.25;16.33;;;;;;;28.83;49.55;101199.25;6108292;23;20454;-81
2023/08/18 08:30:55;;;;;;;23.00;16.80;;;;;;;29.06;49.38;101220.22;6094941;23;20024;-81
2023/08/18 08:33:23;;;;;;;22.35;14.75;;;;;;;29.09;49.37;101223.28;6107892;23;20017;-80
2023/08/18 08:35:54;;;;;;;20.45;15.25;;;;;;;29.18;49.26;101221.00;6112002;23;20575;-80
2023/08/18 08:38:24;;;;;;;28.80;16.50;;;;;;;29.19;49.32;101222.66;6099179;23;20075;-81
2023/08/18 08:40:58;;;;;;;26.88;16.20;;;;;;;29.31;49.29;101233.53;6092072;23;20045;-81
2023/08/18 08:43:33;;;;;;;22.73;15.57;;;;;;;29.27;49.05;101226.88;6110893;23;20369;-80
2023/08/18 08:46:00;;;;;;;22.75;15.73;;;;;;;29.46;48.80;101227.50;6118752;23;20021;-79
2023/08/18 08:48:34;;;;;;;19.25;15.27;;;;;;;29.39;48.40;101231.22;6142433;23;20095;-80
2023/08/18 08:51:04;;;;;;;28.25;17.15;;;;;;;29.45;48.79;101228.59;6160882;23;20651;-80
2023/08/18 08:53:39;;;;;;;23.75;16.10;;;;;;;29.53;48.53;101237.19;6122114;23;20449;-80
2023/08/18 08:56:07;;;;;;;22.45;16.20;;;;;;;29.66;48.54;101229.75;6143279;23;20044;-81
2023/08/18 08:58:36;;;;;;;23.10;15.13;;;;;;;29.02;48.84;101121.47;6119952;23;20213;-80
2023/08/18 09:01:06;;;;;;;24.05;16.42;;;;;;;29.86;48.48;101223.78;6138682;23;20029;-79
2023/08/18 09:03:34;;;;;;;;;;;;;;;29.80;48.46;101226.44;6120311;23;20032;-80
2023/08/18 09:06:01;;;;;;;28.10;16.85;;;;;;;29.72;48.46;101185.00;6114308;23;19920;-79
2023/08/18 09:08:29;;;;;;;25.02;16.00;;;;;;;29.55;48.26;101158.47;6108997;23;20194;-80
2023/08/18 09:11:04;;;;;;;27.88;17.05;;;;;;;29.80;47.72;101181.84;6075132;23;20254;-80
2023/08/18 09:13:35;;;;;;;29.75;16.88;;;;;;;30.09;47.71;101223.59;6106675;23;20017;-80
2023/08/18 09:16:06;;;;;;;28.05;17.38;;;;;;;30.01;47.12;101183.81;6098932;23;20021;-80
2023/08/18 09:18:33;;;;;;;20.08;17.15;;;;;;;30.09;46.59;101179.81;6118279;23;20545;-81
2023/08/18 09:21:06;;;;;;;21.92;16.88;;;;;;;29.67;47.01;101094.66;6105227;23;20466;-82
2023/08/18 09:23:34;;;;;;;23.88;17.65;;;;;;;30.18;47.00;101163.78;6102498;23;20105;-83
2023/08/18 09:26:05;;;;;;;22.38;16.65;;;;;;;30.57;47.16;101234.97;6093454;23;20342;-81
2023/08/18 09:28:32;;;;;;;20.52;17.23;;;;;;;30.20;46.81;101159.69;6099891;23;20076;-81
2023/08/18 09:31:05;;;;;;;21.33;15.23;;;;;;;29.74;46.85;101057.00;6118037;23;20021;-82
2023/08/18 09:33:36;;;;;;;24.48;16.30;;;;;;;30.61;46.45;101206.81;6096943;23;20028;-83
2023/08/18 09:36:03;;;;;;;44.10;17.65;;;;;;;30.70;46.71;101206.34;6093339;23;20018;-82
2023/08/18 09:38:45;;;;;;;24.63;16.42;;;;;;;30.72;45.95;101188.56;6061822;23;20371;-83
2023/08/18 09:41:12;;;;;;;30.17;17.15;;;;;;;31.02;46.05;101207.31;6120974;23;20403;-82
2023/08/18 09:43:49;;;;;;;25.33;17.15;;;;;;;31.27;45.18;101214.94;6111878;23;20163;-82
2023/08/18 09:46:17;;;;;;;26.10;16.38;;;;;;;30.99;45.42;101154.88;6063572;23;20480;-82
2023/08/18 09:48:49;;;;;;;34.47;17.45;;;;;;;31.30;45.01;101195.22;6086531;23;20377;-81
2023/08/18 09:51:22;;;;;;;22.25;16.33;;;;;;;30.84;45.09;101115.28;6123082;23;20100;-83
2023/08/18 09:54:02;;;;;;;27.77;17.77;;;;;;;31.24;44.59;101157.88;6108049;23;20287;-82
2023/08/18 09:56:39;;;;;;;22.08;16.52;;;;;;;31.55;44.62;101180.06;6102580;23;20083;-83
2023/08/18 09:59:52;;;;;;;25.15;18.15;;;;;;;31.80;43.29;101206.06;6107586;23;20410;-82
2023/08/18 10:02:22;;;;;;;35.03;17.52;;;;;;;31.84;44.44;101198.94;6001537;23;20031;-82
2023/08/18 10:04:51;;;;;;;28.42;19.58;;;;;;;31.98;43.92;101194.69;5986196;23;20196;-82
2023/08/18 10:07:18;;;;;;;29.30;18.15;;;;;;;32.13;43.83;101183.78;6028882;23;20434;-80
2023/08/18 10:09:46;;;;;;;26.88;17.15;;;;;;;32.17;43.57;101153.88;6090977;23;20017;-81
2023/08/18 10:12:13;;;;;;;25.25;17.52;;;;;;;32.45;43.31;101171.00;6116114;23;20025;-81
2023/08/18 10:14:41;;;;;;;28.25;17.85;;;;;;;32.70;42.72;101178.56;6087031;23;20310;-81
2023/08/18 10:17:10;;;;;;;26.55;18.65;;;;;;;32.97;41.72;101176.41;6070165;23;20091;-82
2023/08/18 10:19:52;;;;;;;23.73;17.55;;;;;;;32.97;42.13;101187.41;6120095;23;20018;-81
2023/08/18 10:22:21;;;;;;;24.55;17.75;;;;;;;32.51;42.65;101099.34;6111113;23;20057;-81
2023/08/18 10:24:49;;;;;;;28.85;19.00;;;;;;;33.05;42.02;101157.75;6088325;23;20556;-81
2023/08/18 10:27:27;;;;;;;25.90;18.10;;;;;;;33.38;41.81;101181.97;6089779;23;20029;-82
2023/08/18 10:30:00;;;;;;;25.27;18.38;;;;;;;33.53;41.63;101188.56;6111434;23;20021;-81
2023/08/18 10:32:34;;;;;;;26.10;17.30;;;;;;;33.34;40.86;101155.28;6121733;23;20108;-81
2023/08/18 10:35:24;;;;;;;20.25;17.05;;;;;;;33.63;40.45;101186.66;6080453;23;20390;-81
2023/08/18 10:37:54;;;;;;;22.85;18.70;;;;;;;33.90;39.99;101179.19;6111585;23;20135;-81
2023/08/18 10:40:30;;;;;;;22.88;17.20;;;;;;;33.55;40.22;101134.91;6113655;23;20026;-81
2023/08/18 10:43:12;;;;;;;22.15;17.70;;;;;;;33.97;40.86;101174.22;6107310;23;20028;-81
2023/08/18 10:45:40;;;;;;;25.65;17.33;;;;;;;33.88;40.60;101131.81;6127442;23;20018;-81
2023/08/18 10:48:11;;;;;;;21.58;17.40;;;;;;;34.33;39.53;101168.63;6123065;23;20084;-81
2023/08/18 10:50:44;;;;;;;24.67;17.73;;;;;;;34.46;39.26;101165.22;6107213;23;20021;-81
2023/08/18 10:53:12;;;;;;;23.98;17.50;;;;;;;34.55;38.94;101176.50;6094994;23;20052;-82
2023/08/18 10:55:42;;;;;;;26.90;17.80;;;;;;;34.53;38.93;101156.66;6092331;23;20018;-81
2023/08/18 10:58:15;;;;;;;23.90;17.40;;;;;;;34.61;39.02;101134.84;6101537;23;20019;-82
2023/08/18 11:00:45;;;;;;;22.38;16.98;;;;;;;34.65;38.76;101135.94;6070749;23;20025;-81
2023/08/18 11:03:13;;;;;;;21.25;16.92;;;;;;;34.37;38.63;101073.22;6109570;23;20087;-83
2023/08/18 11:05:51;;;;;;;24.50;17.13;;;;;;;34.98;38.54;101155.56;6061712;23;20104;-82
2023/08/18 11:08:30;;;;;;;20.92;17.02;;;;;;;35.18;38.50;101156.56;6113106;23;20527;-82
2023/08/18 11:10:57;;;;;;;21.33;17.23;;;;;;;35.23;38.59;101139.97;6139146;23;20389;-83
2023/08/18 11:13:32;;;;;;;23.58;17.73;;;;;;;35.41;37.53;101158.53;6089106;23;20274;-82
2023/08/18 11:16:15;;;;;;;20.77;17.08;;;;;;;35.40;37.70;101136.78;6095887;23;20491;-82
2023/08/18 11:18:58;;;;;;;22.15;16.13;;;;;;;35.70;37.18;101154.97;6093167;23;20025;-82
2023/08/18 11:21:44;;;;;;;19.30;15.63;;;;;;;35.88;37.50;101150.66;6068698;23;20234;-83
2023/08/18 11:24:28;;;;;;;29.40;17.05;;;;;;;36.08;36.81;101161.47;6079198;23;20033;-83